Time;durP1;ratioP1;P1;durP2;ratioP2;P2;SDS_P1;SDS_P2;PMS_P1;PMS_P2;Temp;Humidity;BMP_temperature;BMP_pressure;BME280_temperature;BME280_humidity;BME280_pressure;Samples;Min_cycle;Max_cycle;Signal;HPM_P1;HPM_P2
2022/07/19 00:00:20;;;;;;;;;4.00;3.00;;;;;15.94;60.44;100179.72;6287059;20;2750252;-59
2022/07/19 00:02:48;;;;;;;;;3.00;3.00;;;;;16.10;59.56;100182.13;6286292;20;2744017;-60
2022/07/19 00:05:16;;;;;;;;;3.50;3.50;;;;;15.67;61.17;100176.38;6286679;20;2742951;-59
2022/07/19 00:07:45;;;;;;;;;3.50;3.50;;;;;15.45;62.16;100175.25;6286565;20;2746114;-60
2022/07/19 00:10:17;;;;;;;;;3.00;3.00;;;;;15.47;62.59;100173.31;6288440;20;2754518;-60
2022/07/19 00:12:47;;;;;;;;;5.50;4.00;;;;;15.46;62.35;100182.41;6283918;20;2749337;-60
2022/07/19 00:15:16;;;;;;;;;4.00;4.00;;;;;15.96;60.96;100180.50;6285874;20;2753452;-60
2022/07/19 00:17:48;;;;;;;;;5.00;5.00;;;;;15.71;61.43;100177.91;6285109;20;2747137;-59
2022/07/19 00:20:22;;;;;;;;;3.00;3.00;;;;;15.79;60.69;100175.47;6283847;20;2748166;-59
2022/07/19 00:22:50;;;;;;;;;5.00;4.50;;;;;15.75;60.58;100176.72;6286250;20;2748195;-59
2022/07/19 00:25:17;;;;;;;;;3.00;3.00;;;;;15.53;61.55;100185.50;6286937;20;2744709;-59
2022/07/19 00:27:46;;;;;;;;;3.00;3.00;;;;;15.42;61.83;100182.75;6305404;20;1802506;-59
2022/07/19 00:30:14;;;;;;;;;3.50;3.50;;;;;15.37;62.31;100183.06;6316964;20;2748432;-59
2022/07/19 00:32:42;;;;;;;;;3.50;3.50;;;;;16.02;59.47;100185.44;6287077;20;2750279;-59
2022/07/19 00:35:10;;;;;;;;;4.00;4.00;;;;;15.85;59.69;100182.25;6284764;20;2745086;-59
2022/07/19 00:37:38;;;;;;;;;4.00;4.00;;;;;16.37;57.59;100187.25;6281782;20;2751411;-59
2022/07/19 00:40:22;;;;;;;;;3.00;3.00;;;;;16.59;56.72;100185.59;6303286;20;1802432;-60
2022/07/19 00:42:52;;;;;;;;;4.00;4.00;;;;;16.46;56.97;100189.28;6317264;20;2753388;-59
2022/07/19 00:45:20;;;;;;;;;5.00;3.50;;;;;15.97;59.22;100187.63;6287977;20;2747126;-59
2022/07/19 00:47:48;;;;;;;;;4.50;4.50;;;;;15.92;59.29;100188.97;6284471;20;2738793;-59
2022/07/19 00:50:18;;;;;;;;;5.50;5.00;;;;;16.16;58.19;100184.38;6285271;20;2746109;-59
2022/07/19 00:53:00;;;;;;;;;7.50;5.00;;;;;15.82;59.59;100177.09;6283414;20;2740892;-59
2022/07/19 00:55:31;;;;;;;;;6.00;3.00;;;;;16.28;57.76;100184.41;6283925;20;2750380;-58
2022/07/19 00:58:01;;;;;;;;;6.50;5.00;;;;;15.88;59.67;100179.34;6282340;20;2742953;-59
2022/07/19 01:00:34;;;;;;;;;7.00;4.00;;;;;15.64;61.12;100182.00;6283661;20;2746227;-58
2022/07/19 01:03:02;;;;;;;;;4.50;3.00;;;;;15.63;60.54;100181.16;6279286;20;2750298;-58
2022/07/19 01:05:30;;;;;;;;;4.50;4.50;;;;;15.73;60.61;100184.06;6282375;20;2749271;-59
2022/07/19 01:07:58;;;;;;;;;4.50;3.00;;;;;15.44;61.10;100183.50;6285437;20;2750256;-58
2022/07/19 01:10:27;;;;;;;;;4.00;3.00;;;;;15.88;59.74;100182.06;6283585;20;2751295;-59
2022/07/19 01:12:56;;;;;;;;;6.00;5.00;;;;;16.07;58.69;100181.53;6283694;20;2737797;-59
2022/07/19 01:15:26;;;;;;;;;2.00;2.00;;;;;15.52;60.75;100176.53;6285748;20;2741929;-58
2022/07/19 01:17:55;;;;;;;;;6.50;4.50;;;;;16.09;58.96;100179.53;6282906;20;2748242;-58
2022/07/19 01:20:25;;;;;;;;;8.00;6.00;;;;;15.41;60.74;100184.59;6282565;20;2729458;-58
2022/07/19 01:22:58;;;;;;;;;4.00;4.00;;;;;15.16;61.74;100174.69;6286364;20;2736818;-57
2022/07/19 01:25:33;;;;;;;;;8.00;6.00;;;;;14.92;62.52;100177.34;6286832;20;2737767;-58
2022/07/19 01:28:05;;;;;;;;;5.00;5.00;;;;;15.11;62.11;100174.16;6284389;20;2729463;-58
2022/07/19 01:30:37;;;;;;;;;7.57;6.71;;;;;14.88;62.55;100171.28;6321091;20;3465867;-56
2022/07/19 01:33:05;;;;;;;;;5.00;5.00;;;;;14.47;64.52;100171.47;6316266;20;2745091;-56
2022/07/19 01:35:33;;;;;;;;;6.00;6.00;;;;;14.63;63.69;100165.91;6284700;20;2736804;-56
2022/07/19 01:38:00;;;;;;;;;6.00;4.00;;;;;14.62;63.61;100167.75;6283541;20;2745037;-56
2022/07/19 01:40:28;;;;;;;;;4.50;4.50;;;;;14.54;63.60;100166.56;6285072;20;2745142;-57
2022/07/19 01:42:56;;;;;;;;;5.50;4.50;;;;;14.26;64.51;100166.59;6283152;20;2747138;-58
2022/07/19 01:45:24;;;;;;;;;4.00;4.00;;;;;14.38;64.18;100162.19;6282490;20;2738825;-58
2022/07/19 01:47:52;;;;;;;;;4.00;4.00;;;;;14.46;64.06;100164.38;6284963;20;2748203;-55
2022/07/19 01:50:19;;;;;;;;;5.00;5.00;;;;;14.41;64.31;100155.72;6285770;20;2750695;-57
2022/07/19 01:52:47;;;;;;;;;5.00;5.00;;;;;14.34;64.37;100160.66;6284220;20;2747206;-57
2022/07/19 01:55:19;;;;;;;;;6.00;6.00;;;;;14.31;64.72;100160.03;6283620;20;2743200;-57
2022/07/19 01:57:50;;;;;;;;;4.50;4.50;;;;;14.49;63.76;100158.75;6283994;20;2744094;-58
2022/07/19 02:00:18;;;;;;;;;5.00;5.00;;;;;14.50;63.93;100160.47;6280960;20;2748174;-57
2022/07/19 02:02:46;;;;;;;;;5.00;5.00;;;;;14.08;65.56;100167.00;6291033;20;2619555;-58
2022/07/19 02:05:15;;;;;;;;;6.00;6.00;;;;;14.22;65.13;100167.78;6300337;20;1808687;-59
2022/07/19 02:07:46;;;;;;;;;5.00;5.00;;;;;13.76;66.62;100160.13;6317433;20;2728374;-60
2022/07/19 02:10:16;;;;;;;;;6.00;6.00;;;;;13.97;65.91;100162.34;6284925;20;2738825;-60
2022/07/19 02:12:45;;;;;;;;;5.00;5.00;;;;;14.11;65.18;100167.66;6283936;20;2748233;-60
2022/07/19 02:15:12;;;;;;;;;7.50;6.00;;;;;13.80;66.76;100166.19;6285030;20;2745126;-59
2022/07/19 02:17:40;;;;;;;;;5.00;4.00;;;;;14.00;66.30;100167.53;6279407;20;2738787;-60
2022/07/19 02:20:09;;;;;;;;;5.00;5.00;;;;;13.86;66.35;100170.31;6281210;20;2748260;-59
2022/07/19 02:22:37;;;;;;;;;4.50;4.50;;;;;13.99;65.94;100168.50;6282189;20;2745198;-58
2022/07/19 02:25:05;;;;;;;;;6.50;4.00;;;;;13.68;67.18;100173.25;6280287;20;2747152;-60
2022/07/19 02:27:33;;;;;;;;;7.00;6.00;;;;;13.71;66.96;100175.75;6277502;20;2742048;-60
2022/07/19 02:30:02;;;;;;;;;5.50;5.50;;;;;13.69;67.65;100177.72;6276432;20;2741944;-61
2022/07/19 02:32:30;;;;;;;;;6.00;6.00;;;;;13.71;66.95;100167.66;6279292;20;2742483;-60
2022/07/19 02:34:58;;;;;;;;;6.00;6.00;;;;;14.23;64.85;100171.34;6280421;20;2741930;-60
2022/07/19 02:37:26;;;;;;;;;6.00;6.00;;;;;13.70;66.99;100171.34;6281188;20;2744025;-59
2022/07/19 02:39:53;;;;;;;;;7.00;7.00;;;;;13.65;66.92;100168.06;6284496;20;2730518;-61
2022/07/19 02:42:21;;;;;;;;;6.00;6.00;;;;;13.71;67.28;100172.19;6289165;20;2738345;-58
2022/07/19 02:44:49;;;;;;;;;5.50;5.50;;;;;13.80;67.20;100172.44;6286859;20;2739846;-60
2022/07/19 02:47:17;;;;;;;;;7.00;5.00;;;;;13.86;66.82;100170.31;6286466;20;2748166;-59
2022/07/19 02:49:44;;;;;;;;;7.50;6.50;;;;;14.14;65.66;100174.69;6289699;20;2742986;-59
2022/07/19 02:52:12;;;;;;;;;5.00;5.00;;;;;13.78;67.00;100173.53;6287189;20;2738793;-60
2022/07/19 02:54:40;;;;;;;;;5.00;5.00;;;;;13.85;66.97;100164.06;6288114;20;2733999;-61
2022/07/19 02:57:07;;;;;;;;;6.00;6.00;;;;;13.73;67.29;100162.16;6287962;20;2746209;-60
2022/07/19 02:59:35;;;;;;;;;9.00;7.00;;;;;13.29;69.25;100177.59;6286922;20;2748289;-60
2022/07/19 03:02:03;;;;;;;;;8.00;5.00;;;;;13.35;68.58;100174.53;6287508;20;2735852;-60
2022/07/19 03:04:31;;;;;;;;;6.00;6.00;;;;;13.03;69.43;100178.38;6294298;20;2739886;-61
2022/07/19 03:06:59;;;;;;;;;7.00;7.00;;;;;12.92;70.17;100177.25;6284676;20;2733665;-59
2022/07/19 03:09:26;;;;;;;;;6.00;6.00;;;;;13.29;69.22;100174.91;6286900;20;2739837;-59
2022/07/19 03:11:54;;;;;;;;;8.50;8.00;;;;;13.21;68.62;100177.22;6288378;20;2735768;-59
2022/07/19 03:14:22;;;;;;;;;7.00;7.00;;;;;13.43;68.25;100175.84;6287572;20;2735718;-61
2022/07/19 03:16:50;;;;;;;;;6.00;6.00;;;;;13.31;69.02;100180.22;6287265;20;2740899;-60
2022/07/19 03:19:19;;;;;;;;;8.20;6.40;;;;;13.39;68.59;100177.88;6309114;20;2744008;-61
2022/07/19 03:21:48;;;;;;;;;8.00;7.00;;;;;13.39;68.94;100173.34;6319243;20;2731907;-61
2022/07/19 03:24:19;;;;;;;;;9.29;7.57;;;;;13.38;69.19;100177.03;6326963;20;1796111;-62
2022/07/19 03:26:51;;;;;;;;;9.14;6.43;;;;;13.37;68.26;100180.66;6358038;20;1804174;-61
2022/07/19 03:29:19;;;;;;;;;8.00;7.00;;;;;13.30;69.06;100184.75;6317560;20;2735666;-62
2022/07/19 03:31:53;;;;;;;;;11.50;7.00;;;;;13.48;68.35;100176.41;6285047;20;2753462;-61
2022/07/19 03:34:21;;;;;;;;;10.00;8.00;;;;;13.46;68.29;100179.22;6283513;20;2770192;-62
2022/07/19 03:36:51;;;;;;;;;8.60;7.60;;;;;14.02;66.03;100193.44;6312575;20;2734691;-62
2022/07/19 03:39:18;;;;;;;;;8.00;7.00;;;;;13.74;66.89;100188.16;6319201;20;2728403;-61
2022/07/19 03:41:46;;;;;;;;;9.00;6.50;;;;;13.72;67.45;100193.69;6288446;20;2753444;-62
2022/07/19 03:44:14;;;;;;;;;5.50;5.00;;;;;13.73;67.22;100192.72;6284990;20;2734661;-62
2022/07/19 03:46:42;;;;;;;;;7.00;6.00;;;;;13.75;66.64;100193.47;6287431;20;2741961;-62
2022/07/19 03:49:10;;;;;;;;;7.00;7.00;;;;;13.95;65.92;100202.06;6286268;20;2741001;-62
2022/07/19 03:51:37;;;;;;;;;5.50;5.50;;;;;14.04;65.77;100196.06;6286185;20;2745067;-61
2022/07/19 03:54:05;;;;;;;;;4.00;4.00;;;;;14.23;64.68;100199.22;6285184;20;2745072;-59
2022/07/19 03:56:33;;;;;;;;;8.00;8.00;;;;;13.72;67.26;100200.94;6283040;20;2750248;-60
2022/07/19 03:59:04;;;;;;;;;34.00;31.67;;;;;14.19;65.33;100210.34;6286796;20;3579389;-59
2022/07/19 04:01:34;;;;;;;;;23.00;19.00;;;;;14.33;64.82;100212.97;6282352;20;2852800;-59
2022/07/19 04:04:02;;;;;;;;;16.50;14.50;;;;;14.50;63.82;100215.34;6317704;20;2814873;-59
2022/07/19 04:06:30;;;;;;;;;11.00;11.00;;;;;14.49;64.68;100207.38;6284792;20;2781499;-59
2022/07/19 04:08:57;;;;;;;;;8.00;6.00;;;;;14.68;63.04;100213.25;6287716;20;2746082;-60
2022/07/19 04:11:27;;;;;;;;;6.80;6.00;;;;;14.64;64.07;100211.75;6307793;20;2742054;-59
2022/07/19 04:13:55;;;;;;;;;0.00;0.00;;;;;15.04;62.53;100216.16;6317339;20;2694124;-60
2022/07/19 04:16:23;;;;;;;;;5.00;5.00;;;;;15.28;61.25;100211.69;6284917;20;2732600;-60
2022/07/19 04:18:51;;;;;;;;;7.00;6.00;;;;;15.45;60.75;100223.09;6285163;20;2741910;-60
2022/07/19 04:21:20;;;;;;;;;4.60;4.60;;;;;15.53;60.50;100226.09;6310655;20;2748184;-60
2022/07/19 04:23:48;;;;;;;;;7.00;6.00;;;;;15.63;60.36;100229.88;6314118;20;2746179;-59
2022/07/19 04:26:16;;;;;;;;;5.00;5.00;;;;;15.75;59.93;100225.44;6281893;20;2735817;-59
2022/07/19 04:28:44;;;;;;;;;4.00;4.00;;;;;15.77;59.90;100228.88;6285728;20;2744108;-59
2022/07/19 04:31:14;;;;;;;;;5.00;5.00;;;;;15.91;59.13;100227.88;6285396;20;2748471;-59
2022/07/19 04:33:48;;;;;;;;;7.00;6.00;;;;;16.06;59.15;100231.25;6289221;20;2744069;-60
2022/07/19 04:36:16;;;;;;;;;5.00;5.00;;;;;16.16;58.44;100235.84;6285313;20;2736750;-59
2022/07/19 04:38:44;;;;;;;;;4.00;4.00;;;;;16.22;58.44;100239.94;6282737;20;2742102;-60
2022/07/19 04:41:11;;;;;;;;;6.00;6.00;;;;;16.33;57.96;100242.69;6287773;20;2747158;-59
2022/07/19 04:43:41;;;;;;;;;6.20;4.80;;;;;16.46;58.16;100243.47;6307808;20;2741911;-59
2022/07/19 04:46:08;;;;;;;;;7.50;4.00;;;;;16.65;57.37;100255.59;6316317;20;2747161;-60
2022/07/19 04:48:41;;;;;;;;;4.43;4.43;;;;;16.62;57.38;100254.00;6327194;20;3449694;-60
2022/07/19 04:51:08;;;;;;;;;6.50;5.00;;;;;16.77;58.61;100259.19;6315615;20;2738808;-60
2022/07/19 04:53:36;;;;;;;;;4.00;4.00;;;;;17.11;56.47;100254.72;6281923;20;2745061;-61
2022/07/19 04:56:06;;;;;;;;;5.00;5.00;;;;;17.23;55.87;100256.44;6283586;20;2745153;-61
2022/07/19 04:58:34;;;;;;;;;6.00;5.00;;;;;17.34;55.16;100251.00;6287572;20;2739904;-61
2022/07/19 05:01:02;;;;;;;;;6.00;5.00;;;;;17.51;55.61;100251.53;6283728;20;2742339;-61
2022/07/19 05:03:30;;;;;;;;;6.00;4.00;;;;;17.84;54.70;100244.31;6288317;20;2740907;-61
2022/07/19 05:05:59;;;;;;;;;5.20;5.20;;;;;17.96;53.95;100246.88;6307610;20;2737799;-61
2022/07/19 05:08:27;;;;;;;;;5.50;5.50;;;;;18.03;53.14;100241.78;6316891;20;2745221;-61
2022/07/19 05:10:57;;;;;;;;;4.80;4.80;;;;;18.30;52.19;100238.63;6311216;20;2746187;-62
2022/07/19 05:13:24;;;;;;;;;6.00;3.00;;;;;18.44;50.99;100248.31;6314393;20;2748221;-58
2022/07/19 05:15:52;;;;;;;;;6.00;5.00;;;;;18.69;50.22;100243.47;6282677;20;2745083;-61
2022/07/19 05:18:20;;;;;;;;;5.00;5.00;;;;;18.75;51.10;100248.44;6284115;20;2741016;-60
2022/07/19 05:20:48;;;;;;;;;7.00;6.00;;;;;19.04;50.58;100249.44;6290253;20;2741934;-61
2022/07/19 05:23:16;;;;;;;;;5.00;5.00;;;;;19.11;50.62;100249.75;6286761;20;2746130;-60
2022/07/19 05:25:44;;;;;;;;;4.00;4.00;;;;;19.23;49.57;100250.53;6285753;20;2746200;-61
2022/07/19 05:28:11;;;;;;;;;5.00;4.00;;;;;19.46;50.11;100253.94;6284062;20;2745042;-61
2022/07/19 05:30:43;;;;;;;;;6.60;5.80;;;;;19.83;49.16;100253.38;6306520;20;2737771;-60
2022/07/19 05:33:13;;;;;;;;;5.40;4.00;;;;;19.97;47.57;100254.81;6338381;20;2732537;-59
2022/07/19 05:35:40;;;;;;;;;5.00;5.00;;;;;20.32;47.44;100255.13;6319731;20;2745030;-59
2022/07/19 05:38:08;;;;;;;;;4.00;4.00;;;;;20.08;47.02;100255.53;6286878;20;2735132;-58
2022/07/19 05:40:36;;;;;;;;;4.00;4.00;;;;;20.53;47.45;100254.13;6284653;20;2741985;-58
2022/07/19 05:43:08;;;;;;;;;4.71;4.14;;;;;20.58;47.06;100247.25;6328170;20;3462797;-58
2022/07/19 05:45:37;;;;;;;;;4.20;4.20;;;;;20.66;46.40;100252.00;6340221;20;2745234;-58
2022/07/19 05:48:07;;;;;;;;;6.00;5.00;;;;;20.61;46.38;100246.09;6341468;20;2742043;-58
2022/07/19 05:50:35;;;;;;;;;7.00;7.00;;;;;21.05;46.29;100243.72;6315399;20;2739873;-59
2022/07/19 05:53:02;;;;;;;;;5.00;5.00;;;;;21.28;45.46;100238.75;6284082;20;2741954;-58
2022/07/19 05:55:31;;;;;;;;;4.33;3.00;;;;;21.59;44.86;100247.56;6288131;20;2754422;-58
2022/07/19 05:57:59;;;;;;;;;5.33;4.67;;;;;21.44;44.95;100244.47;6307317;20;2733580;-59
2022/07/19 06:00:28;;;;;;;;;6.00;6.00;;;;;21.77;44.10;100249.47;6316946;20;2737944;-58
2022/07/19 06:02:56;;;;;;;;;6.00;5.00;;;;;21.86;44.62;100249.41;6316815;20;2731644;-58
2022/07/19 06:05:26;;;;;;;;;7.40;6.00;;;;;22.09;44.68;100238.91;6338581;20;2748196;-58
2022/07/19 06:07:55;;;;;;;;;7.00;5.00;;;;;22.27;43.54;100240.81;6283091;20;2739848;-58
2022/07/19 06:10:23;;;;;;;;;6.00;5.00;;;;;22.52;42.11;100242.75;6317147;20;2747186;-61
2022/07/19 06:12:52;;;;;;;;;4.00;4.00;;;;;22.55;41.95;100242.44;6334951;20;2739868;-61
2022/07/19 06:15:21;;;;;;;;;6.00;4.00;;;;;22.65;41.36;100241.50;6314668;20;2748189;-61
2022/07/19 06:17:51;;;;;;;;;4.20;3.00;;;;;22.93;41.36;100244.94;6334742;20;2754444;-60
2022/07/19 06:20:21;;;;;;;;;5.20;5.00;;;;;23.24;40.76;100250.81;6303847;20;2737880;-61
2022/07/19 06:22:50;;;;;;;;;5.00;5.00;;;;;23.35;40.34;100245.06;6305944;20;2745064;-59
2022/07/19 06:25:20;;;;;;;;;5.00;3.20;;;;;23.60;39.94;100245.19;6339252;20;2751386;-58
2022/07/19 06:27:50;;;;;;;;;4.60;3.40;;;;;24.22;38.30;100255.84;6306890;20;2746083;-59
2022/07/19 06:30:19;;;;;;;;;4.60;4.60;;;;;24.17;38.18;100252.75;6336329;20;2736814;-60
2022/07/19 06:32:49;;;;;;;;;6.20;3.00;;;;;24.40;37.08;100255.69;6337306;20;2747134;-59
2022/07/19 06:35:18;;;;;;;;;3.80;3.80;;;;;24.46;37.13;100255.03;6337326;20;2753523;-59
2022/07/19 06:37:47;;;;;;;;;5.00;5.00;;;;;24.46;38.08;100257.78;6313333;20;2744132;-62
2022/07/19 06:40:15;;;;;;;;;5.67;3.67;;;;;25.00;37.21;100260.88;6314976;20;2735681;-63
2022/07/19 06:42:45;;;;;;;;;7.60;5.00;;;;;24.88;36.92;100262.25;6339389;20;2736729;-64
2022/07/19 06:45:15;;;;;;;;;4.60;4.60;;;;;25.55;36.30;100264.72;6334640;20;2737782;-62
2022/07/19 06:47:46;;;;;;;;;5.00;5.00;;;;;25.37;35.72;100256.69;6339652;20;2738805;-64
2022/07/19 06:50:15;;;;;;;;;4.00;4.00;;;;;26.11;35.54;100264.66;6337226;20;2721170;-64
2022/07/19 06:53:04;;;;;;;;;4.00;4.00;;;;;26.33;34.13;100261.06;6337387;20;2734679;-62
2022/07/19 06:55:34;;;;;;;;;4.00;3.00;;;;;26.50;34.64;100267.31;6338694;20;2733616;-61
2022/07/19 06:58:03;;;;;;;;;3.60;3.60;;;;;27.04;32.78;100260.81;6336124;20;2747166;-60
2022/07/19 07:00:33;;;;;;;;;2.80;1.20;;;;;27.03;31.97;100259.13;6305106;20;2737764;-61
2022/07/19 07:03:03;;;;;;;;;4.25;3.75;;;;;27.55;31.26;100258.25;6334068;20;2042095;-60
2022/07/19 07:05:33;;;;;;;;;3.33;3.33;;;;;27.43;31.89;100257.00;6309356;20;2745037;-60
2022/07/19 07:08:03;;;;;;;;;4.00;4.00;;;;;27.65;31.07;100263.44;6346335;20;2752418;-59
2022/07/19 07:10:33;;;;;;;;;4.00;4.00;;;;;28.36;31.10;100260.97;6310116;20;2746101;-60
2022/07/19 07:13:02;;;;;;;;;4.80;4.00;;;;;28.82;29.87;100266.94;6307690;20;2741928;-60
2022/07/19 07:15:32;;;;;;;;;6.80;4.00;;;;;29.14;29.82;100263.84;6306963;20;2747230;-61
2022/07/19 07:18:02;;;;;;;;;5.00;3.00;;;;;28.94;29.62;100253.47;6308111;20;2746118;-60
2022/07/19 07:20:34;;;;;;;;;5.67;4.00;;;;;28.87;29.17;100260.84;6296672;20;2752376;-67
2022/07/19 07:23:04;;;;;;;;;7.00;2.40;;;;;29.24;29.36;100258.81;6337752;20;2746108;-67
2022/07/19 07:25:33;;;;;;;;;1.20;1.20;;;;;29.20;29.01;100257.50;6308586;20;2739859;-61
2022/07/19 07:28:02;;;;;;;;;1.00;1.00;;;;;29.38;27.39;100260.59;6323599;20;2733668;-62
2022/07/19 07:30:31;;;;;;;;;2.00;2.00;;;;;29.88;26.69;100266.84;6343689;20;2738812;-62
2022/07/19 07:33:01;;;;;;;;;3.00;3.00;;;;;29.89;26.54;100265.81;6311015;20;2745050;-62
2022/07/19 07:35:30;;;;;;;;;6.20;4.00;;;;;30.51;26.89;100257.47;6314578;20;2754410;-60
2022/07/19 07:38:00;;;;;;;;;4.80;3.20;;;;;30.87;26.15;100259.88;6315810;20;2750252;-59
2022/07/19 07:40:28;;;;;;;;;2.33;2.33;;;;;30.91;25.86;100268.63;6290275;20;2739908;-60
2022/07/19 07:42:57;;;;;;;;;3.67;3.67;;;;;30.77;25.91;100265.81;6323111;20;2746243;-60
2022/07/19 07:45:25;;;;;;;;;5.33;5.00;;;;;31.11;24.67;100272.25;6316194;20;2742950;-59
2022/07/19 07:47:55;;;;;;;;;0.00;0.00;;;;;30.56;24.86;100266.00;6347016;20;2730471;-59
2022/07/19 07:50:26;;;;;;;;;5.20;4.00;;;;;30.47;24.44;100270.06;6340276;20;2745079;-60
2022/07/19 07:52:56;;;;;;;;;4.40;4.40;;;;;30.21;25.55;100263.34;6311199;20;2739865;-62
2022/07/19 07:55:24;;;;;;;;;3.67;3.33;;;;;30.67;25.69;100268.16;6288993;20;2752334;-61
2022/07/19 07:57:58;;;;;;;;;1.40;1.40;;;;;31.10;25.42;100262.22;6347239;20;2729555;-61
2022/07/19 08:00:28;;;;;;;;;5.00;3.40;;;;;31.42;25.14;100267.97;6343411;20;2750308;-60
2022/07/19 08:02:57;;;;;;;;;4.00;3.00;;;;;30.67;24.17;100257.06;6316405;20;1815928;-62
2022/07/19 08:05:25;;;;;;;;;3.00;3.00;;;;;31.64;24.31;100252.75;6322355;20;2742080;-62
2022/07/19 08:07:55;;;;;;;;;6.80;4.00;;;;;31.64;24.14;100257.44;6344899;20;2752393;-67
2022/07/19 08:10:27;;;;;;;;;3.67;3.67;;;;;32.07;23.41;100257.75;6290055;20;2745046;-61
2022/07/19 08:12:56;;;;;;;;;8.33;5.33;;;;;32.15;22.83;100251.06;6320239;20;2747264;-61
2022/07/19 08:15:25;;;;;;;;;3.33;3.33;;;;;32.25;22.65;100256.13;6320913;20;2746480;-62
2022/07/19 08:17:53;;;;;;;;;4.33;2.33;;;;;32.02;23.77;100252.00;6326449;20;2748286;-62
2022/07/19 08:20:22;;;;;;;;;24.67;16.00;;;;;32.26;23.55;100249.50;6321746;20;3571057;-61
2022/07/19 08:22:52;;;;;;;;;5.40;3.80;;;;;32.07;23.25;100249.41;6312590;20;2751303;-62
2022/07/19 08:25:21;;;;;;;;;3.40;3.00;;;;;31.80;23.21;100245.84;6312808;20;2735694;-62
2022/07/19 08:27:50;;;;;;;;;6.00;3.67;;;;;32.53;23.38;100253.00;6288152;20;2743018;-59
2022/07/19 08:30:20;;;;;;;;;2.40;2.40;;;;;32.14;22.89;100241.84;6342974;20;2746133;-60
2022/07/19 08:32:49;;;;;;;;;2.60;2.00;;;;;32.30;22.39;100234.06;6313033;20;2720241;-61
2022/07/19 08:35:19;;;;;;;;;2.20;2.20;;;;;32.51;22.41;100239.31;6343181;20;2740031;-59
2022/07/19 08:37:47;;;;;;;;;9.33;4.00;;;;;33.05;22.22;100244.50;6283581;20;2762920;-59
2022/07/19 08:40:16;;;;;;;;;3.00;3.00;;;;;33.04;20.58;100242.75;6317261;20;2749292;-60
2022/07/19 08:42:47;;;;;;;;;5.40;2.40;;;;;32.67;21.25;100237.06;6339982;20;2754435;-60
2022/07/19 08:45:17;;;;;;;;;1.60;1.60;;;;;33.21;20.69;100243.88;6311571;20;2735262;-60
2022/07/19 08:47:47;;;;;;;;;2.00;2.00;;;;;33.17;21.40;100240.69;6313787;20;2724348;-59
2022/07/19 08:50:15;;;;;;;;;2.33;2.00;;;;;33.84;20.84;100248.34;6319032;20;2755436;-60
2022/07/19 08:52:45;;;;;;;;;4.00;2.60;;;;;33.08;20.32;100244.03;6342240;20;2750339;-60
2022/07/19 08:55:15;;;;;;;;;6.40;3.40;;;;;32.94;20.23;100238.56;6311477;20;2754410;-61
2022/07/19 08:57:56;;;;;;;;;3.80;2.80;;;;;33.07;20.32;100236.72;6314746;20;2754434;-60
2022/07/19 09:00:29;;;;;;;;;2.80;1.40;;;;;33.15;20.45;100236.44;6309907;20;2737831;-60
2022/07/19 09:03:07;;;;;;;;;3.00;1.33;;;;;32.60;20.35;100225.13;6290435;20;2738778;-61
2022/07/19 09:05:37;;;;;;;;;4.00;4.00;;;;;33.15;20.36;100231.75;6339646;20;2756653;-59
2022/07/19 09:08:17;;;;;;;;;5.80;2.40;;;;;33.57;20.09;100225.53;6315558;20;2754513;-59
2022/07/19 09:13:39;;;;;;;;;6.80;1.40;;;;;33.29;20.78;100223.25;6313068;20;2738793;-60
2022/07/19 09:16:07;;;;;;;;;4.33;3.00;;;;;33.58;19.71;100227.25;6285893;20;2754428;-62
2022/07/19 09:18:37;;;;;;;;;2.00;2.00;;;;;33.32;19.58;100228.38;6342209;20;2747115;-61
2022/07/19 09:21:07;;;;;;;;;1.00;1.00;;;;;33.77;19.99;100220.56;6312235;20;2733598;-61
2022/07/19 09:23:41;;;;;;;;;2.20;2.00;;;;;33.27;19.93;100223.47;6310654;20;2749241;-63
2022/07/19 09:26:10;;;;;;;;;2.60;1.40;;;;;33.54;19.83;100214.84;6311773;20;2755464;-60
2022/07/19 09:28:40;;;;;;;;;2.40;1.60;;;;;33.53;20.08;100219.53;6313368;20;2748191;-60
2022/07/19 09:31:09;;;;;;;;;1.67;1.67;;;;;33.95;19.14;100221.63;6287905;20;2744138;-61
2022/07/19 09:33:45;;;;;;;;;2.60;2.00;;;;;34.07;19.14;100225.34;6342647;20;2748254;-61
2022/07/19 09:36:15;;;;;;;;;2.40;2.40;;;;;33.61;20.03;100216.47;6314152;20;2731487;-61
2022/07/19 09:38:44;;;;;;;;;1.40;1.40;;;;;33.94;18.94;100215.22;6340130;20;2736079;-59
2022/07/19 09:41:19;;;;;;;;;1.40;1.40;;;;;33.65;19.46;100222.41;6310210;20;2740872;-60
2022/07/19 09:44:05;;;;;;;;;3.00;2.00;;;;;33.59;19.69;100212.22;6312392;20;2750269;-61
2022/07/19 09:46:43;;;;;;;;;3.00;1.20;;;;;33.52;18.92;100206.72;6306240;20;2751758;-61
2022/07/19 09:49:17;;;;;;;;;1.80;1.60;;;;;33.20;19.47;100214.34;6312973;20;2729434;-62
2022/07/19 09:51:53;;;;;;;;;10.33;8.67;;;;;33.69;19.54;100212.53;6315857;20;2748158;-61
2022/07/19 09:54:26;;;;;;;;;9.00;5.00;;;;;33.74;19.52;100209.91;6319772;20;2747138;-61
2022/07/19 09:56:58;;;;;;;;;2.00;2.00;;;;;34.61;19.47;100205.91;6314802;20;2739820;-60
2022/07/19 09:59:28;;;;;;;;;3.40;1.80;;;;;34.05;19.24;100199.63;6337151;20;2739864;-61
2022/07/19 10:01:57;;;;;;;;;1.00;1.00;;;;;33.91;19.93;100198.09;6285423;20;2728375;-60
2022/07/19 10:04:27;;;;;;;;;1.40;1.40;;;;;33.95;19.34;100202.13;6337012;20;2741312;-62
2022/07/19 10:06:56;;;;;;;;;0.40;0.40;;;;;34.17;19.03;100203.31;6307236;20;2727359;-61
2022/07/19 10:09:25;;;;;;;;;1.00;1.00;;;;;34.03;19.20;100194.28;6315651;20;2746178;-60
2022/07/19 10:11:59;;;;;;;;;1.00;1.00;;;;;33.63;20.11;100196.75;6335662;20;2742028;-61
2022/07/19 10:14:27;;;;;;;;;3.00;1.00;;;;;33.96;19.84;100190.72;6280773;20;2752375;-61
2022/07/19 10:17:55;;;;;;;;;0.67;0.67;;;;;33.14;20.08;100181.88;6312844;20;2741936;-67
2022/07/19 10:20:27;;;;;;;;;3.40;1.40;;;;;32.70;20.28;100180.97;6335117;20;2737800;-65
2022/07/19 10:23:02;;;;;;;;;2.75;1.00;;;;;33.49;19.77;100196.00;6305280;20;1903413;-64
2022/07/19 10:25:47;;;;;;;;;1.33;1.33;;;;;33.04;19.71;100187.13;6308626;20;2729456;-63
2022/07/19 10:28:37;;;;;;;;;2.80;2.40;;;;;33.49;19.67;100184.88;6339144;20;2746111;-67
2022/07/19 10:31:30;;;;;;;;;2.00;1.00;;;;;33.82;20.03;100180.88;6298148;20;2752414;-66
2022/07/19 10:34:11;;;;;;;;;1.00;1.00;;;;;33.56;19.58;100176.50;6302133;20;2725264;-65
2022/07/19 10:36:47;;;;;;;;;2.00;2.00;;;;;33.36;19.82;100188.69;6319736;20;2734309;-64
2022/07/19 10:39:30;;;;;;;;;3.40;2.40;;;;;33.46;19.87;100188.13;6291637;20;2748368;-64
2022/07/19 10:42:23;;;;;;;;;1.00;1.00;;;;;33.58;19.90;100182.69;6297831;20;2748225;-63
2022/07/19 10:44:59;;;;;;;;;2.40;1.60;;;;;33.74;19.88;100193.19;6305159;20;2724597;-65
2022/07/19 10:47:40;;;;;;;;;1.80;1.80;;;;;32.63;20.53;100169.09;6331407;20;2731554;-64
2022/07/19 10:50:18;;;;;;;;;1.60;1.60;;;;;32.47;20.52;100178.81;6306285;20;2752366;-62
2022/07/19 10:52:48;;;;;;;;;2.40;1.00;;;;;33.81;20.22;100177.25;6306206;20;2740897;-63
2022/07/19 10:55:22;;;;;;;;;1.60;1.60;;;;;33.84;19.50;100171.19;6304952;20;2732703;-63
2022/07/19 10:58:05;;;;;;;;;3.00;2.00;;;;;33.92;19.65;100169.16;6279571;20;2724250;-62
2022/07/19 11:00:49;;;;;;;;;1.80;1.80;;;;;33.39;19.54;100167.91;6335705;20;2726307;-63
2022/07/19 11:03:23;;;;;;;;;4.00;1.40;;;;;33.39;19.92;100168.75;6309444;20;2735708;-62
2022/07/19 11:06:03;;;;;;;;;2.40;2.40;;;;;33.72;19.98;100169.44;6308854;20;2739880;-63
2022/07/19 11:08:42;;;;;;;;;2.00;2.00;;;;;33.41;19.86;100162.91;6311855;20;2736799;-61
2022/07/19 11:11:19;;;;;;;;;2.80;1.20;;;;;33.66;19.69;100169.28;6310524;20;2744188;-61
2022/07/19 11:13:53;;;;;;;;;3.00;2.80;;;;;33.12;20.65;100157.03;6309912;20;2748335;-62
2022/07/19 11:16:26;;;;;;;;;3.40;3.40;;;;;33.18;19.71;100153.34;6310593;20;2752524;-63
2022/07/19 11:19:10;;;;;;;;;4.40;2.40;;;;;33.69;18.90;100150.41;6308367;20;2754559;-64
2022/07/19 11:21:41;;;;;;;;;1.80;1.80;;;;;33.44;19.84;100149.41;6309584;20;2734748;-62
2022/07/19 11:24:11;;;;;;;;;2.00;2.00;;;;;32.98;20.21;100139.63;6310087;20;2742036;-63
2022/07/19 11:26:41;;;;;;;;;1.40;1.40;;;;;33.83;19.63;100141.59;6308109;20;2739257;-61